createdAt,value
2023-02-03T00:01:23.496Z,99197.24
2023-02-03T00:03:50.561Z,99194.23
2023-02-03T00:06:17.759Z,99195.23
2023-02-03T00:08:45.081Z,99193.95
2023-02-03T00:11:12.408Z,99198.23
2023-02-03T00:13:39.539Z,99198.25
2023-02-03T00:16:09.887Z,99198.91
2023-02-03T00:18:37.043Z,99196.38
2023-02-03T00:21:04.326Z,99197.31
2023-02-03T00:23:32.572Z,99201.14
2023-02-03T00:26:08.287Z,99204.03
2023-02-03T00:28:35.366Z,99207.42
2023-02-03T00:31:02.271Z,99212.83
2023-02-03T00:33:29.621Z,99211.83
2023-02-03T00:35:57.035Z,99217.02
2023-02-03T00:38:28.300Z,99222.45
2023-02-03T00:40:55.203Z,99219.09
2023-02-03T00:43:22.325Z,99219.83
2023-02-03T00:45:49.816Z,99222.19
2023-02-03T00:48:17.228Z,99223.52
2023-02-03T00:50:47.695Z,99222.33
2023-02-03T00:53:15.043Z,99219.73
2023-02-03T00:55:44.140Z,99216.67
2023-02-03T00:58:11.287Z,99218.44
2023-02-03T01:00:39.119Z,99219.22
2023-02-03T01:03:06.194Z,99212.50
2023-02-03T01:05:33.122Z,99211.55
2023-02-03T01:08:01.529Z,99208.86
2023-02-03T01:10:29.341Z,99207.67
2023-02-03T01:12:56.999Z,99203.70
2023-02-03T01:15:24.342Z,99204.41
2023-02-03T01:17:51.793Z,99206.92
2023-02-03T01:20:22.015Z,99203.02
2023-02-03T01:22:49.528Z,99205.00
2023-02-03T01:25:16.612Z,99201.83
2023-02-03T01:27:43.799Z,99200.06
2023-02-03T01:30:12.046Z,99203.00
2023-02-03T01:32:39.287Z,99200.92
2023-02-03T01:35:06.901Z,99202.91
2023-02-03T01:37:34.328Z,99201.80
2023-02-03T01:40:01.251Z,99201.25
2023-02-03T01:42:32.813Z,99200.14
2023-02-03T01:44:59.973Z,99197.27
2023-02-03T01:47:35.371Z,99194.30
2023-02-03T01:50:25.497Z,99191.75
2023-02-03T01:53:05.933Z,99186.20
2023-02-03T01:55:41.094Z,99190.04
2023-02-03T01:58:12.018Z,99188.73
2023-02-03T02:00:39.266Z,99186.63
2023-02-03T02:03:07.742Z,99183.36
2023-02-03T02:05:43.059Z,99178.88
2023-02-03T02:08:11.454Z,99174.56
2023-02-03T02:10:38.939Z,99172.54
2023-02-03T02:13:06.861Z,99165.10
2023-02-03T02:15:48.830Z,99162.10
2023-02-03T02:18:33.517Z,99156.84
2023-02-03T02:21:09.579Z,99150.06
2023-02-03T02:24:12.174Z,99151.21
2023-02-03T02:27:17.344Z,99148.80
2023-02-03T02:30:02.259Z,99145.61
2023-02-03T02:32:38.332Z,99145.63
2023-02-03T02:35:15.014Z,99147.72
2023-02-03T02:37:54.730Z,99147.35
2023-02-03T02:40:34.580Z,99138.02
2023-02-03T02:43:10.941Z,99129.99
2023-02-03T02:45:46.720Z,99123.55
2023-02-03T02:48:37.676Z,99118.30
2023-02-03T02:51:07.379Z,99111.05
2023-02-03T02:53:38.654Z,99107.48
2023-02-03T02:56:09.760Z,99107.02
2023-02-03T02:58:41.355Z,99105.91
2023-02-03T03:01:10.159Z,99106.54
2023-02-03T03:03:40.854Z,99108.25
2023-02-03T03:06:16.813Z,99106.74
2023-02-03T03:09:05.427Z,99107.92
2023-02-03T03:11:42.976Z,99114.11
2023-02-03T03:14:13.243Z,99118.61
2023-02-03T03:16:47.475Z,99122.60
2023-02-03T03:19:19.381Z,99122.95
2023-02-03T03:21:52.487Z,99116.89
2023-02-03T03:24:33.977Z,99119.58
2023-02-03T03:27:23.420Z,99118.01
2023-02-03T03:30:05.705Z,99122.08
2023-02-03T03:32:33.452Z,99110.73
2023-02-03T03:35:03.299Z,99099.45
2023-02-03T03:38:03.331Z,99101.52
2023-02-03T03:40:54.672Z,99094.80
2023-02-03T03:43:28.519Z,99092.61
2023-02-03T03:46:10.957Z,99084.27
2023-02-03T03:48:54.196Z,99084.27
2023-02-03T03:51:46.254Z,99079.77
2023-02-03T03:54:21.945Z,99075.63
2023-02-03T03:56:59.964Z,99079.79
2023-02-03T03:59:31.633Z,99074.63
2023-02-03T04:02:05.196Z,99067.70
2023-02-03T04:04:36.803Z,99065.59
2023-02-03T04:07:03.866Z,99056.89
2023-02-03T04:09:31.208Z,99058.06
2023-02-03T04:12:06.250Z,99054.11
2023-02-03T04:14:41.171Z,99053.83
2023-02-03T04:17:09.852Z,99050.89
2023-02-03T04:19:36.816Z,99044.45
2023-02-03T04:22:03.648Z,99038.60
2023-02-03T04:24:30.462Z,99035.91
2023-02-03T04:26:57.328Z,99031.74
2023-02-03T04:29:24.175Z,99024.34
2023-02-03T04:31:50.995Z,99023.81
2023-02-03T04:34:17.723Z,99021.66
2023-02-03T04:36:44.576Z,99017.16
2023-02-03T04:39:11.412Z,99014.31
2023-02-03T04:41:38.263Z,99008.95
2023-02-03T04:44:05.334Z,99010.89
2023-02-03T04:46:32.448Z,99007.48
2023-02-03T04:48:59.410Z,99001.05
2023-02-03T04:51:34.351Z,99000.89
2023-02-03T04:54:13.160Z,98995.25
2023-02-03T04:56:55.124Z,98995.17
2023-02-03T04:59:31.487Z,98998.84
2023-02-03T05:02:09.963Z,98996.59
2023-02-03T05:04:42.412Z,98990.05
2023-02-03T05:07:10.398Z,98989.36
2023-02-03T05:09:37.289Z,98985.52
2023-02-03T05:12:04.587Z,98984.52
2023-02-03T05:14:31.629Z,98984.20
2023-02-03T05:16:58.619Z,98982.96
2023-02-03T05:19:25.670Z,98965.16
2023-02-03T05:21:52.755Z,98950.31
2023-02-03T05:24:20.034Z,98942.69
2023-02-03T05:26:47.008Z,98937.89
2023-02-03T05:29:14.051Z,98935.30
2023-02-03T05:31:41.481Z,98932.20
2023-02-03T05:34:08.448Z,98929.63
2023-02-03T05:36:35.394Z,98922.33
2023-02-03T05:39:02.441Z,98915.88
2023-02-03T05:41:48.428Z,98914.21
2023-02-03T05:44:15.366Z,98915.89
2023-02-03T05:46:42.209Z,98915.55
2023-02-03T05:49:09.077Z,98907.98
2023-02-03T05:51:36.302Z,98906.51
2023-02-03T05:54:03.010Z,98901.34
2023-02-03T05:56:29.878Z,98897.10
2023-02-03T05:58:56.720Z,98894.47
2023-02-03T06:01:23.667Z,98893.71
2023-02-03T06:03:50.706Z,98892.95
2023-02-03T06:06:18.483Z,98893.13
2023-02-03T06:08:45.433Z,98891.19
2023-02-03T06:11:12.563Z,98892.95
2023-02-03T06:13:39.822Z,98889.34
2023-02-03T06:16:07.067Z,98882.79
2023-02-03T06:18:33.897Z,98881.06
2023-02-03T06:21:00.635Z,98882.76
2023-02-03T06:23:27.583Z,98884.08
2023-02-03T06:25:54.529Z,98879.05
2023-02-03T06:28:21.448Z,98873.98
2023-02-03T06:30:52.393Z,98869.93
2023-02-03T06:33:19.852Z,98869.08
2023-02-03T06:35:46.707Z,98857.20
2023-02-03T06:38:13.550Z,98851.69
2023-02-03T06:40:40.477Z,98846.89
2023-02-03T06:43:07.349Z,98837.05
2023-02-03T06:45:34.781Z,98833.75
2023-02-03T06:48:01.714Z,98837.33
2023-02-03T06:50:28.903Z,98830.20
2023-02-03T06:52:56.212Z,98826.01
2023-02-03T06:55:22.954Z,98825.43
2023-02-03T06:57:49.893Z,98817.91
2023-02-03T07:00:19.454Z,98817.53
2023-02-03T07:02:47.064Z,98812.35
2023-02-03T07:05:14.223Z,98814.22
2023-02-03T07:07:41.049Z,98819.91
2023-02-03T07:10:08.508Z,98816.69
2023-02-03T07:12:36.979Z,98816.13
2023-02-03T07:15:07.572Z,98810.63
2023-02-03T07:17:34.344Z,98803.30
2023-02-03T07:20:01.226Z,98795.70
2023-02-03T07:22:28.263Z,98790.93
2023-02-03T07:24:55.070Z,98793.68
2023-02-03T07:27:21.814Z,98797.07
2023-02-03T07:29:48.668Z,98796.65
2023-02-03T07:32:15.700Z,98792.95
2023-02-03T07:34:42.536Z,98799.11
2023-02-03T07:37:09.851Z,98796.34
2023-02-03T07:39:36.977Z,98794.23
2023-02-03T07:42:04.328Z,98793.29
2023-02-03T07:44:31.637Z,98797.27
2023-02-03T07:46:58.574Z,98800.64
2023-02-03T07:49:25.770Z,98795.64
2023-02-03T07:51:53.128Z,98787.14
2023-02-03T07:54:20.164Z,98774.80
2023-02-03T07:56:47.208Z,98765.98
2023-02-03T07:59:14.069Z,98759.06
2023-02-03T08:01:41.187Z,98755.94
2023-02-03T08:04:09.049Z,98750.95
2023-02-03T08:06:36.168Z,98741.26
2023-02-03T08:09:03.289Z,98738.45
2023-02-03T08:11:30.410Z,98740.60
2023-02-03T08:13:57.708Z,98739.50
2023-02-03T08:16:24.986Z,98734.96
2023-02-03T08:18:52.112Z,98736.75
2023-02-03T08:21:19.292Z,98731.09
2023-02-03T08:23:46.301Z,98723.30
2023-02-03T08:26:13.212Z,98712.55
2023-02-03T08:28:40.307Z,98710.94
2023-02-03T08:31:12.343Z,98708.24
2023-02-03T08:33:39.504Z,98702.33
2023-02-03T08:36:06.933Z,98693.48
2023-02-03T08:38:34.211Z,98692.47
2023-02-03T08:41:01.616Z,98681.15
2023-02-03T08:43:29.018Z,98674.84
2023-02-03T08:45:56.229Z,98671.37
2023-02-03T08:48:23.632Z,98663.70
2023-02-03T08:50:53.333Z,98658.48
2023-02-03T08:53:20.747Z,98652.00
2023-02-03T08:55:47.856Z,98644.54
2023-02-03T08:58:15.536Z,98638.71
2023-02-03T09:00:43.385Z,98633.00
2023-02-03T09:03:11.297Z,98630.70
2023-02-03T09:05:38.737Z,98630.13
2023-02-03T09:08:06.151Z,98615.45
2023-02-03T09:10:33.171Z,98615.78
2023-02-03T09:13:00.215Z,98610.61
2023-02-03T09:15:27.665Z,98608.39
2023-02-03T09:17:55.859Z,98604.86
2023-02-03T09:20:24.890Z,98598.49
2023-02-03T09:22:52.398Z,98591.06
2023-02-03T09:25:19.741Z,98582.54
2023-02-03T09:27:46.953Z,98573.05
2023-02-03T09:30:14.788Z,98567.89
2023-02-03T09:32:41.913Z,98559.27
2023-02-03T09:35:09.488Z,98552.17
2023-02-03T09:37:37.143Z,98546.19
2023-02-03T09:40:04.516Z,98538.30
2023-02-03T09:42:56.105Z,98532.41
2023-02-03T09:45:31.043Z,98522.52
2023-02-03T09:48:08.050Z,98512.20
2023-02-03T09:50:38.899Z,98500.80
2023-02-03T09:53:14.898Z,98492.33
2023-02-03T09:55:45.811Z,98485.38
2023-02-03T09:58:21.464Z,98473.89
2023-02-03T10:00:53.853Z,98463.52
2023-02-03T10:03:29.221Z,98456.09
2023-02-03T10:06:05.375Z,98450.00
2023-02-03T10:08:35.477Z,98437.06
2023-02-03T10:11:43.003Z,98427.80
2023-02-03T10:14:31.260Z,98416.23
2023-02-03T10:17:20.052Z,98403.30
2023-02-03T10:19:53.782Z,98400.41
2023-02-03T10:22:27.723Z,98395.52
2023-02-03T10:25:12.516Z,98382.56
2023-02-03T10:27:40.598Z,98381.98
2023-02-03T10:30:26.596Z,98377.83
2023-02-03T10:33:00.874Z,98370.17
2023-02-03T10:35:40.966Z,98367.72
2023-02-03T10:38:18.495Z,98363.44
2023-02-03T10:40:46.037Z,98350.98
2023-02-03T10:43:32.335Z,98336.48
2023-02-03T10:46:00.514Z,98321.79
2023-02-03T10:48:28.426Z,98319.14
2023-02-03T10:50:56.478Z,98318.45
2023-02-03T10:53:35.289Z,98311.79
2023-02-03T10:56:07.143Z,98301.08
2023-02-03T10:58:35.538Z,98297.30
2023-02-03T11:01:13.669Z,98289.11
2023-02-03T11:03:54.405Z,98275.91
2023-02-03T11:06:21.564Z,98271.44
2023-02-03T11:08:50.850Z,98262.61
2023-02-03T11:11:34.306Z,98253.30
2023-02-03T11:14:04.087Z,98241.20
2023-02-03T11:16:34.164Z,98226.99
2023-02-03T11:19:03.553Z,98217.46
2023-02-03T11:21:51.944Z,98201.69
2023-02-03T11:24:23.213Z,98188.80
2023-02-03T11:26:50.623Z,98179.66
2023-02-03T11:29:39.457Z,98172.77
2023-02-03T11:32:23.859Z,98164.11
2023-02-03T11:35:19.176Z,98153.01
2023-02-03T11:37:49.512Z,98149.03
2023-02-03T11:40:18.365Z,98138.80
2023-02-03T11:43:06.960Z,98130.48
2023-02-03T11:45:54.358Z,98123.33
2023-02-03T11:48:44.887Z,98117.32
2023-02-03T11:51:33.810Z,98109.27
2023-02-03T11:54:04.540Z,98103.19
2023-02-03T11:56:59.397Z,98091.39
2023-02-03T11:59:42.046Z,98082.61
2023-02-03T12:02:54.148Z,98079.67
2023-02-03T12:05:32.757Z,98074.02
2023-02-03T12:08:19.918Z,98058.91
2023-02-03T12:10:57.981Z,98050.08
2023-02-03T12:13:41.383Z,98042.97
2023-02-03T12:16:28.485Z,98036.73
2023-02-03T12:19:14.162Z,98024.50
2023-02-03T12:21:50.397Z,98019.23
2023-02-03T12:24:53.657Z,98009.25
2023-02-03T12:27:27.373Z,98001.13
2023-02-03T12:30:11.038Z,97991.48
2023-02-03T12:32:49.037Z,97982.90
2023-02-03T12:35:19.225Z,97969.09
2023-02-03T12:38:22.199Z,97962.36
2023-02-03T12:40:57.028Z,97953.77
2023-02-03T12:43:42.658Z,97949.13
2023-02-03T12:46:51.453Z,97941.08
2023-02-03T12:49:44.049Z,97937.35
2023-02-03T12:52:27.139Z,97934.33
2023-02-03T12:55:39.909Z,97930.13
2023-02-03T12:58:13.017Z,97926.98
2023-02-03T13:01:02.956Z,97920.05
2023-02-03T13:03:46.011Z,97919.71
2023-02-03T13:06:20.622Z,97911.23
2023-02-03T13:08:54.630Z,97901.14
2023-02-03T13:11:48.873Z,97896.55
2023-02-03T13:14:40.170Z,97892.71
2023-02-03T13:17:15.564Z,97884.14
2023-02-03T13:19:50.985Z,97872.05
2023-02-03T13:22:19.714Z,97871.66
2023-02-03T13:25:06.494Z,97859.81
2023-02-03T13:28:08.437Z,97850.53
2023-02-03T13:31:15.801Z,97836.66
2023-02-03T13:33:58.159Z,97835.64
2023-02-03T13:37:03.646Z,97828.90
2023-02-03T13:39:48.791Z,97820.47
2023-02-03T13:42:38.856Z,97818.05
2023-02-03T13:45:12.575Z,97810.56
2023-02-03T13:47:40.735Z,97808.73
2023-02-03T13:50:28.008Z,97799.19
2023-02-03T13:53:08.200Z,97793.86
2023-02-03T13:55:48.053Z,97790.36
2023-02-03T13:58:40.718Z,97785.79
2023-02-03T14:01:53.321Z,97782.77
2023-02-03T14:04:32.012Z,97774.60
2023-02-03T14:07:06.594Z,97771.73
2023-02-03T14:09:34.728Z,97774.97
2023-02-03T14:12:20.330Z,97767.15
2023-02-03T14:14:53.641Z,97760.80
2023-02-03T14:17:41.327Z,97756.27
2023-02-03T14:20:27.609Z,97743.45
2023-02-03T14:22:58.181Z,97734.92
2023-02-03T14:25:27.654Z,97720.04
2023-02-03T14:28:04.617Z,97708.29
2023-02-03T14:30:32.148Z,97699.57
2023-02-03T14:33:03.184Z,97692.72
2023-02-03T14:35:35.244Z,97689.00
2023-02-03T14:38:09.483Z,97685.15
2023-02-03T14:41:05.046Z,97676.41
2023-02-03T14:43:56.341Z,97670.80
2023-02-03T14:46:42.639Z,97681.40
2023-02-03T14:49:23.987Z,97669.98
2023-02-03T14:52:03.121Z,97657.86
2023-02-03T14:55:18.209Z,97650.61
2023-02-03T14:58:01.181Z,97655.83
2023-02-03T15:00:36.961Z,97654.42
2023-02-03T15:03:07.044Z,97652.19
2023-02-03T15:05:43.209Z,97649.70
2023-02-03T15:08:38.045Z,97657.60
2023-02-03T15:11:24.846Z,97670.70
2023-02-03T15:13:52.854Z,97683.11
2023-02-03T15:16:22.911Z,97687.52
2023-02-03T15:18:59.732Z,97709.06
2023-02-03T15:21:27.551Z,97742.64
2023-02-03T15:23:54.907Z,97762.61
2023-02-03T15:26:27.653Z,97766.70
2023-02-03T15:29:00.304Z,97762.55
2023-02-03T15:31:45.214Z,97753.20
2023-02-03T15:34:29.903Z,97755.52
2023-02-03T15:37:03.460Z,97748.55
2023-02-03T15:39:54.080Z,97734.73
2023-02-03T15:42:45.000Z,97724.42
2023-02-03T15:45:33.344Z,97715.27
2023-02-03T15:48:27.446Z,97728.42
2023-02-03T15:51:01.325Z,97760.87
2023-02-03T15:53:46.782Z,97779.48
2023-02-03T15:56:23.102Z,97782.49
2023-02-03T15:58:51.111Z,97781.08
2023-02-03T16:01:23.699Z,97778.52
2023-02-03T16:03:53.482Z,97774.09
2023-02-03T16:06:30.833Z,97780.55
2023-02-03T16:09:00.046Z,97775.17
2023-02-03T16:11:35.504Z,97777.59
2023-02-03T16:14:05.251Z,97781.48
2023-02-03T16:16:55.395Z,97787.13
2023-02-03T16:19:38.674Z,97783.66
2023-02-03T16:22:05.812Z,97785.81
2023-02-03T16:24:32.695Z,97775.27
2023-02-03T16:27:28.208Z,97777.89
2023-02-03T16:30:39.105Z,97789.09
2023-02-03T16:33:27.722Z,97779.59
2023-02-03T16:36:14.690Z,97779.02
2023-02-03T16:39:08.210Z,97780.27
2023-02-03T16:41:53.922Z,97781.77
2023-02-03T16:44:39.897Z,97787.65
2023-02-03T16:47:49.546Z,97790.45
2023-02-03T16:50:43.183Z,97789.67
2023-02-03T16:53:19.963Z,97788.98
2023-02-03T16:55:47.907Z,97788.63
2023-02-03T16:58:15.011Z,97795.06
2023-02-03T17:00:44.659Z,97789.48
2023-02-03T17:03:14.775Z,97794.60
2023-02-03T17:05:44.610Z,97799.66
2023-02-03T17:08:11.503Z,97801.11
2023-02-03T17:10:40.515Z,97806.77
2023-02-03T17:13:11.004Z,97805.41
2023-02-03T17:15:50.936Z,97814.60
2023-02-03T17:18:17.813Z,97817.31
2023-02-03T17:20:46.120Z,97822.69
2023-02-03T17:23:14.057Z,97826.31
2023-02-03T17:25:41.506Z,97821.01
2023-02-03T17:28:09.590Z,97823.02
2023-02-03T17:30:36.844Z,97821.10
2023-02-03T17:33:14.377Z,97822.48
2023-02-03T17:35:43.001Z,97828.48
2023-02-03T17:38:11.244Z,97828.23
2023-02-03T17:54:37.666Z,97853.78
2023-02-03T17:57:05.057Z,97847.45
2023-02-03T17:59:34.387Z,97842.38
2023-02-03T18:02:02.398Z,97839.84
2023-02-03T18:04:29.515Z,97852.18
2023-02-03T18:06:56.801Z,97848.23
2023-02-03T18:09:23.841Z,97860.35
2023-02-03T18:11:50.979Z,97858.71
2023-02-03T18:14:18.493Z,97863.90
2023-02-03T18:16:46.202Z,97872.27
2023-02-03T18:19:15.337Z,97874.00
2023-02-03T18:21:43.928Z,97873.38
2023-02-03T18:24:13.775Z,97879.27
2023-02-03T18:26:50.174Z,97873.72
2023-02-03T18:29:18.073Z,97881.66
2023-02-03T18:31:45.266Z,97883.39
2023-02-03T18:34:12.709Z,97887.13
2023-02-03T18:39:08.625Z,97884.75
2023-02-03T18:41:38.957Z,97889.94
2023-02-03T18:44:06.256Z,97885.02
2023-02-03T18:46:34.154Z,97887.87
2023-02-03T18:49:01.257Z,97886.14
2023-02-03T18:51:28.580Z,97896.61
2023-02-03T18:53:59.715Z,97896.34
2023-02-03T18:56:28.262Z,97892.98
2023-02-03T18:58:55.447Z,97902.41
2023-02-03T19:01:29.840Z,97901.72
2023-02-03T19:03:59.367Z,97909.83
2023-02-03T19:06:30.271Z,97911.65
2023-02-03T19:08:58.327Z,97916.69
2023-02-03T19:11:26.008Z,97920.70
2023-02-03T19:13:53.044Z,97912.77
2023-02-03T19:16:20.247Z,97907.08
2023-02-03T19:18:48.342Z,97908.96
2023-02-03T19:21:15.706Z,97911.57
2023-02-03T19:23:43.201Z,97915.41
2023-02-03T19:26:10.576Z,97912.00
2023-02-03T19:28:38.316Z,97908.44
2023-02-03T19:31:08.295Z,97903.73
2023-02-03T19:33:36.659Z,97908.03
2023-02-03T19:36:05.108Z,97906.00
2023-02-03T19:38:32.346Z,97901.41
2023-02-03T19:40:59.456Z,97898.77
2023-02-03T19:43:26.432Z,97903.20
2023-02-03T19:45:53.450Z,97901.80
2023-02-03T19:48:20.369Z,97907.31
2023-02-03T19:50:48.907Z,97904.39
2023-02-03T19:53:17.701Z,97908.60
2023-02-03T19:55:46.124Z,97910.06
2023-02-03T19:58:14.915Z,97909.31
2023-02-03T20:00:43.225Z,97908.11
2023-02-03T20:03:10.825Z,97903.69
2023-02-03T20:05:38.355Z,97904.77
2023-02-03T20:08:17.278Z,97898.66
2023-02-03T20:10:45.655Z,97899.63
2023-02-03T20:13:13.537Z,97898.17
2023-02-03T20:15:40.612Z,97896.18
2023-02-03T20:18:08.106Z,97894.39
2023-02-03T20:20:35.497Z,97894.34
2023-02-03T20:23:03.221Z,97890.08
2023-02-03T20:25:30.283Z,97890.95
2023-02-03T20:27:58.474Z,97891.64
2023-02-03T20:30:25.968Z,97892.98
2023-02-03T20:32:54.907Z,97892.66
2023-02-03T20:35:24.062Z,97887.27
2023-02-03T20:37:51.623Z,97880.83
2023-02-03T20:40:23.259Z,97881.30
2023-02-03T20:42:53.164Z,97884.96
2023-02-03T20:45:23.100Z,97884.95
2023-02-03T20:47:59.870Z,97888.17
2023-02-03T20:50:40.439Z,97884.77
2023-02-03T20:53:12.968Z,97884.16
2023-02-03T20:55:39.867Z,97882.98
2023-02-03T20:58:29.334Z,97883.89
2023-02-03T21:00:58.990Z,97892.31
2023-02-03T21:03:45.672Z,97892.73
2023-02-03T21:06:16.846Z,97889.58
2023-02-03T21:08:45.410Z,97884.39
2023-02-03T21:11:18.608Z,97885.27
2023-02-03T21:13:55.166Z,97888.84
2023-02-03T21:16:31.419Z,97887.28
2023-02-03T21:19:02.994Z,97885.70
2023-02-03T21:21:35.181Z,97890.23
2023-02-03T21:24:17.246Z,97890.83
2023-02-03T21:26:44.156Z,97891.51
2023-02-03T21:29:27.089Z,97889.73
2023-02-03T21:31:55.871Z,97893.91
2023-02-03T21:34:34.646Z,97895.80
2023-02-03T21:37:34.958Z,97893.80
2023-02-03T21:40:01.850Z,97899.50
2023-02-03T21:42:44.271Z,97894.56
2023-02-03T21:45:57.490Z,97889.38
2023-02-03T21:48:30.370Z,97885.27
2023-02-03T21:51:04.199Z,97886.23
2023-02-03T21:53:36.209Z,97883.99
2023-02-03T21:56:25.053Z,97883.91
2023-02-03T21:58:55.629Z,97888.14
2023-02-03T22:01:23.909Z,97887.81
2023-02-03T22:03:55.265Z,97884.67
2023-02-03T22:06:35.253Z,97888.55
2023-02-03T22:09:03.338Z,97888.80
2023-02-03T22:11:31.648Z,97885.12
2023-02-03T22:13:58.557Z,97884.24
2023-02-03T22:16:26.018Z,97881.75
2023-02-03T22:18:52.892Z,97878.11
2023-02-03T22:21:20.023Z,97878.80
2023-02-03T22:23:47.825Z,97873.11
2023-02-03T22:26:16.826Z,97877.83
2023-02-03T22:28:44.339Z,97876.52
2023-02-03T22:31:13.331Z,97879.27
2023-02-03T22:33:41.959Z,97881.92
2023-02-03T22:36:10.917Z,97876.73
2023-02-03T22:38:39.803Z,97880.51
2023-02-03T22:41:07.961Z,97871.69
2023-02-03T22:43:35.236Z,97877.45
2023-02-03T22:46:02.636Z,97878.15
2023-02-03T22:48:29.615Z,97881.92
2023-02-03T22:50:58.572Z,97887.59
2023-02-03T22:53:26.340Z,97889.06
2023-02-03T22:55:53.375Z,97886.63
2023-02-03T22:58:20.423Z,97892.11
2023-02-03T23:00:47.215Z,97886.91
2023-02-03T23:03:14.244Z,97888.90
2023-02-03T23:05:41.140Z,97884.73
2023-02-03T23:08:08.352Z,97881.53
2023-02-03T23:10:35.322Z,97881.57
2023-02-03T23:13:02.235Z,97875.66
2023-02-03T23:15:29.442Z,97872.52
2023-02-03T23:17:56.460Z,97866.52
2023-02-03T23:20:24.199Z,97864.63
2023-02-03T23:22:51.228Z,97864.98
2023-02-03T23:25:18.278Z,97866.23
2023-02-03T23:27:45.200Z,97864.95
2023-02-03T23:30:13.870Z,97862.23
2023-02-03T23:32:40.820Z,97853.46
2023-02-03T23:35:27.621Z,97849.21
2023-02-03T23:37:54.538Z,97848.84
2023-02-03T23:40:21.813Z,97844.09
2023-02-03T23:42:48.683Z,97846.85
2023-02-03T23:45:15.940Z,97845.23
2023-02-03T23:47:44.859Z,97843.98
2023-02-03T23:50:15.057Z,97847.52
2023-02-03T23:52:42.023Z,97848.48
2023-02-03T23:55:14.668Z,97847.33
2023-02-03T23:57:44.980Z,97846.73
